Αποτελέσματα αγώνα : Sifnos Run 2018

Αποτελέσματα Sifnos Run 2018 – Διαδρομή 10km

Pos Unicode Name Race No Time Net Time Category Code Categ Pos Gender Club
1 ΘΕΟΔΩΡΑΚΑΚΟΣ ΔΗΜΗΤΡΗΣ 119 00:35:56 00:35:53 All Ages 1 Male
2 OIVENEY CIARRAN 121 00:36:47 00:36:45 All Ages 2 Male
3 ΤΣΙΓΕΡΙΔΗΣ ΓΕΩΡΓΙΟΣ 117 00:38:02 00:38:01 All Ages 3 Male SANTA RUNNING TEAM
4 ΚΙΟΥΣΗΣ ΔΗΜΗΤΡΗΣ 126 00:42:17 00:42:14 All Ages 4 Male
5 ΝΤΟΚΑΣ ΘΑΝΟΣ 68 00:42:37 00:42:35 All Ages 5 Male sifnos high school running team
6 ΤΖΕΝΕΤΟΠΟΥΛΟΣ ΜΑΤΤΕΟ 93 00:44:48 00:44:45 All Ages 6 Male CAMPION SCHOOL
7 ΛΑΖΟΣ ΙΩΑΝΝΗΣ 48 00:46:18 00:46:13 All Ages 7 Male
8 ΑΝΤΩΝΟΠΟΥΛΟΣ ΓΕΡΑΣΙΜΟΣ 6 00:46:25 00:46:23 All Ages 8 Male ΥΓΕΙΑ Κ ΔΙΑΠΛΑΣΗ GYM
9 ΚΑΛΟΓΗΡΟΥ ΣΤΑΥΡΟΣ 34 00:46:25 00:46:22 All Ages 9 Male
10 ΤΣΟΜΠΑΝΑΚΗΣ ΜΑΝΟΣ 98 00:49:04 00:48:59 All Ages 10 Male
11 ΚΟΥΚΗΣ ΔΡΟΣΟΣ 107 00:49:25 00:49:23 All Ages 11 Male sifnos high school running team
12 ΣΜΥΡΝΙΩΤΑΚΗΣ ΤΑΣΟΣ 86 00:49:32 00:49:26 All Ages 12 Male
13 ΚΑΛΟΓΗΡΟΥ ΜΑΡΚΟΣ 33 00:49:56 00:49:54 All Ages 13 Male
14 ΨΥΧΟΠΟΥΛΟΣ ΓΙΑΝΝΗΣ 101 00:50:15 00:50:06 All Ages 14 Male
15 ΠΑΝΑΓΙΩΤΟΠΟΥΛΟΥ ΕΙΡΗΝΗ 72 00:50:43 00:50:40 All Ages 1 Female MARATHON CLUB
16 ΖΑΜΠΕΛΗΣ ΓΙΩΡΓΟΣ 26 00:50:45 00:50:43 All Ages 15 Male ELASSONA GREEN RUNNING TEAM
17 LEHANE CIARRA 120 00:51:00 00:50:53 All Ages 2 Female
18 MOULINEAN AURELLIE 124 00:51:03 00:50:56 All Ages 16 Male
19 ΚΥΡΚΙΛΗΣ ΓΙΩΡΓΟΣ 45 00:51:25 00:51:22 All Ages 17 Male
20 ΑΤΣΩΝΙΟΣ ΜΑΝΩΛΗΣ 10 00:51:29 00:51:22 All Ages 18 Male
21 ΓΚΡΙΝΤΖΑΣ ΓΕΩΡΓΙΟΣ 18 00:51:31 00:51:28 All Ages 19 Male
22 ΠΑΠΑΓΓΕΛΕΤΟΣ ΝΙΚΟΣ 110 00:51:55 00:51:52 All Ages 20 Male sifnos high school running team
23 ΚΟΕΝΚΑ ΚΑΡΟΛΟΣ 40 00:51:56 00:51:48 All Ages 21 Male
24 DOMINIQUE BERNARD 125 00:51:58 00:51:51 All Ages 22 Male
25 ΚΩΝΣΤΑΝΤΟΠΟΥΛΟΣ ΝΙΚΟΛΑΣ 46 00:52:25 00:52:20 All Ages 23 Male ALEX FUNCTIONAL TRAINING
26 ΣΚΙΑΔΑΣ ΘΕΟΔΩΡΟΣ 83 00:52:46 00:52:40 All Ages 24 Male
27 ΜΑΜΙΔΑΣ ΚΩΣΤΑΣ 52 00:52:47 00:52:44 All Ages 25 Male sifnos high school running team
28 ΑΝΑΣΤΑΣΙΟΥ ΚΩΝΣΤΑΝΤΙΝΟΣ 5 00:52:59 00:52:53 All Ages 26 Male
29 ΑΘΑΝΑΣΙΟΥ ΓΙΩΡΓΟΣ 3 00:53:03 00:53:00 All Ages 27 Male ADIDASRUNNERS
30 ΠΑΓΑΡΕΜΟΣ ΓΙΩΡΓΟΣ 70 00:53:10 00:53:03 All Ages 28 Male
31 ΑΡΜΥΡΟΣ ΣΠΥΡΟΣ 8 00:53:34 00:53:34 All Ages 29 Male Polias Runners
32 ΙΩΣΗΦΙΔΗΣ ΓΙΩΡΓΟΣ 29 00:53:50 00:53:47 All Ages 30 Male ΑΣ ΦΙΛΟΘΕΗ
33 ΧΑΡΑΛΑΜΠΟΠΟΥΛΟΣ ΘΕΟΔΩΡΟΣ 100 00:54:00 00:53:57 All Ages 31 Male NOVASPORTS RUNNING TEAM
34 ΝΙΚΟΛΑΚΟΠΟΥΛΟΣ ΓΙΩΡΓΟΣ 67 00:54:19 00:54:11 All Ages 32 Male
35 ΝΑΡΛΗΣ ΔΗΜΗΤΡΗΣ 64 00:54:20 00:54:16 All Ages 33 Male
36 ΣΥΝΟΔΙΝΟΣ ΑΝΤΩΝΗΣ-ΛΥΚΟΥΡΓΟΣ 88 00:55:00 00:54:51 All Ages 34 Male
37 ΦΙΣΟ ΚΑΡΙΝ 99 00:55:00 00:54:57 All Ages 3 Female
38 ΤΟΓΚΑ ΝΕΛΛΙΑ 94 00:55:02 00:55:02 All Ages 4 Female
39 ΤΣΙΝΑ ΑΝΤΟΝΙΟ 114 00:55:07 00:55:04 All Ages 35 Male sifnos high school running team
40 ΤΣΑΒΑΛΟΣ ΖΗΚΟΣ 97 00:55:31 00:55:23 All Ages 36 Male Snails Team
41 ΚΑΡΓΑΔΟΥΡΗΣ ΔΗΜΗΤΙΟΣ 37 00:56:00 00:55:51 All Ages 37 Male
42 ΚΟΥΚΟΥΛΗ ΚΩΝΣΤΑΝΤΙΝΑ 43 00:56:13 00:56:07 All Ages 5 Female ΤΡΑΧΙΝΑ
43 ΒΑΓΓΕΡ ΦΡΑΓΚΙΣΚΗ 11 00:56:18 00:56:16 All Ages 6 Female
44 ΚΟΤΣΙΡΑ ΗΡΑ 42 00:56:20 00:56:11 All Ages 7 Female
45 ΓΕΡΟΝΤΟΠΟΥΛΟΣ ΑΠΟΣΤΟΛΟΣ 17 00:56:35 00:56:33 All Ages 38 Male
46 ΜΠΛΟΥΜ ΑΛΕΞΑΝΔΡΟΣ 60 00:57:16 00:57:13 All Ages 39 Male
47 ΖΕΓΚΙΝΟΓΛΟΥ ΦΙΛΙΠΠΟΣ 122 00:57:26 00:57:23 All Ages 40 Male
48 ΝΑΚΟΥ ΕΛΛΗ 63 00:57:46 00:57:43 All Ages 8 Female MARATHON TEAM
49 ΜΠΑΜΠΟΥΝΗΣ ΑΝΔΡΕΑΣ 57 00:57:49 00:57:47 All Ages 41 Male sifnos high school running team
50 ΝΑΡΑΗ ΦΛΩΡΑ 109 00:58:46 00:58:42 All Ages 9 Female sifnos high school running team
51 ΒΕΝΙΟΣ ΓΙΩΡΓΟΣ 15 00:58:52 00:58:43 All Ages 42 Male
52 ΚΟΛΕΤΗ ΚΩΝΣΤΑΝΤΙΝΑ 105 00:58:53 00:58:50 All Ages 10 Female sifnos high school running team
53 ΕΛΛΗΣ ΧΡΙΣΤΟΦΟΡΟΣ 24 00:59:16 00:59:07 All Ages 43 Male
54 ΕΛΛΗΣ ΜΙΧΑΛΗΣ 25 00:59:16 00:59:07 All Ages 44 Male
55 ΚΑΠΙΡΗΣ ΔΗΜΗΤΡΙΟΣ 35 00:59:20 00:59:15 All Ages 45 Male
56 ΒΡΑΧΙΟΛΙΔΗΣ ΑΠΟΣΤΟΛΟΣ 16 00:59:30 00:59:25 All Ages 46 Male
57 ΠΑΠΑΔΟΠΟΥΛΟΣ ΝΙΚΟΛΑΟΣ 74 00:59:45 00:59:38 All Ages 47 Male
58 ΑΝΑΓΝΩΣΤΟΥ ΙΟΥΛΙΑ 4 01:00:05 00:59:56 All Ages 11 Female
59 ΝΕΓΚΑ ΜΑΡΙΑ 65 01:00:58 01:00:56 All Ages 12 Female PHYSIO KINETICS
60 ΜΠΟΛΟΒΙΝΟΣ ΔΗΜΗΤΡΙΟΣ 62 01:00:59 01:00:55 All Ages 48 Male ALL TERRAIN RUNNERS
61 ΚΑΡΑΛΗΣ ΧΡΗΣΤΟΣ 104 01:01:15 01:01:09 All Ages 49 Male sifnos high school running team
62 ΠΑΣΤΡΑ ΑΛΕΚΑ 75 01:01:24 01:01:22 All Ages 13 Female MARATHON TEAM GREECE
63 ΜΠΑΞΑΣ ΜΑΡΙΟΣ 58 01:01:26 01:01:16 All Ages 50 Male ΓΥΜΝΑΣΤΙΚΟΣ ΣΥΛΛΟΓΟΣ ΓΛΥΦΑΔΑΣ
64 ΚΑΡΑΓΙΑΝΝΗΣ ΖΗΣΙΜΟΣ 103 01:01:36 01:01:32 All Ages 51 Male sifnos high school running team
65 ΤΑΜΠΟΥΡΑΚΗΣ ΓΙΑΝΝΗΣ 91 01:01:58 01:01:53 All Ages 52 Male
66 ΚΑΓΚΟΥΡΑ ΑΚΡΙΒΗ 31 01:02:18 01:02:18 All Ages 14 Female ADIDASRUNNERS
67 ΣΚΑΡΛΑΤΟΣ ΑΝΤΩΝΙΟΣ 81 01:02:19 01:02:14 All Ages 53 Male
68 ΡΑΦΕΛΕΤΟΥ ΦΛΩΡΑ 77 01:02:25 01:02:16 All Ages 15 Female ΠΑΝΣΙΦΝΑΙΚΟΣ
69 ΑΤΣΟΝΙΟΣ ΑΝΤΩΝΗΣ 9 01:02:25 01:02:17 All Ages 54 Male ΠΑΝΣΙΦΝΑΙΚΟΣ
70 ΔΙΟΝΥΣΟΠΟΥΛΟΣ ΝΙΚΟΣ 123 01:03:01 01:02:59 All Ages 55 Male
71 ΚΑΒΒΑΛΟΥ ΜΑΡΙΑ 30 01:03:03 01:02:59 All Ages 16 Female
72 ΜΠΕΛΙΟΣ ΝΙΚΟΛΑΟΣ 59 01:03:45 01:03:35 All Ages 56 Male
73 ΣΥΝΟΔΙΝΟΣ ΣΠΥΡΟΣ 89 01:03:49 01:03:40 All Ages 57 Male
74 ΜΙΧΑΗΛ ΜΑΡΙΑ 56 01:03:52 01:03:44 All Ages 17 Female ΤΡΑΧΙΝΑ
75 ΣΤΑΥΡΙΑΝΟΥ ΜΑΡΓΑΡΙΤΑ 113 01:04:14 01:04:10 All Ages 18 Female sifnos high school running team
76 ΠΟΝΤΖΗΣ ΣΤΥΛΙΑΝΟΣ 76 01:04:23 01:04:19 All Ages 58 Male MARATHON TEAM
77 BEYS MICHAEL 2 01:05:08 01:05:03 All Ages 59 Male
78 ΒΑΣΙΛΑΝΤΩΝΑΚΗΣ ΒΑΡΔΗΣ 12 01:05:14 01:05:10 All Ages 60 Male
79 ΚΟΡΟ ΕΛΕΑΝΝΑ 106 01:05:22 01:05:16 All Ages 19 Female sifnos high school running team
80 ΟΙΚΟΝΟΜΟΠΟΥΛΟΣ ΚΥΡΙΑΚΟΣ 69 01:05:33 01:05:28 All Ages 61 Male
81 ΔΡΑΚΟΥ ΔΗΜΗΤΡΑ 22 01:05:46 01:05:43 All Ages 20 Female
82 ΠΑΠΑΔΙΑΣ ΧΑΡΑΛΑΜΠΟΣ 73 01:05:59 01:05:49 All Ages 62 Male
83 ΖΕΥΚΙΛΗ ΜΕΝΙΑ 55 01:06:06 01:06:03 All Ages 21 Female Marathon Team Greece By Maria Polyzou
84 ΔΙΑΡΕΜΕΣ ΝΙΚΟΣ 102 01:06:12 01:06:06 All Ages 63 Male sifnos high school running team
85 ΜΑΜΙΔΑΣ ΛΕΥΤΕΡΗΣ 108 01:06:20 01:06:14 All Ages 64 Male sifnos high school running team
86 ΚΑΛΟΓΗΡΟΥ ΕΛΛΗ 32 01:06:47 01:06:40 All Ages 22 Female sifnos high school running team
87 ΚΟΜΗΣ ΙΩΑΝΝΗΣ 41 01:07:23 01:07:23 All Ages 65 Male
88 ΠΟΥΡΙΚΙ ΓΚΕΡΑΛΝΤ 111 01:07:32 01:07:26 All Ages 66 Male sifnos high school running team
89 ΒΑΣΙΛΕΙΑΔΗΣ ΦΩΤΙΟΣ 13 01:07:49 01:02:58 All Ages 67 Male
90 ΡΕΣΒΑΝΗ ΑΜΑΛΙΑ 79 01:08:19 01:08:15 All Ages 23 Female
91 ΝΙΚΟΛΑΚΗΣ ΙΩΑΝΝΗΣ 66 01:08:35 01:08:27 All Ages 68 Male
92 BEYS MARIA CHAKOS 1 01:08:50 01:08:43 All Ages 24 Female
93 ΤΡΙΑΝΤΑΦΥΛΛΙΔΗΣ ΠΑΥΛΟΣ 96 01:09:07 01:09:02 All Ages 69 Male ΜΑΡΙΑ ΠΟΛΥΖΟΥ MARATHON TEAM
94 ΤΣΙΝΑ ΓΚΙΣΕΛΝΤΑ 115 01:09:59 01:09:53 All Ages 25 Female sifnos high school running team
95 ΠΑΛΑΙΟΛΟΓΟΥ ΜΕΡΟΠΗ 71 01:11:25 01:11:20 All Ages 26 Female
96 ΛΑΜΠΡΟΠΟΥΛΟΥ ΓΕΩΡΓΙΑ 667 01:12:38 01:12:34 All Ages 27 Female ΑΠΣ ΑΘΗΝΑΙΟΙ ΔΡΟΜΕΙΣ
97 ΙΩΑΝΝΟΥ ΑΝΑΣΤΑΣΙΟΣ 28 01:14:48 01:14:37 All Ages 70 Male
98 ΚΥΡΙΑΚΗ ΜΑΡΙΝΑ 44 01:14:49 01:14:38 All Ages 28 Female
99 ΠΑΡΤΣΑΛΙΔΗΣ ΙΩΑΝΝΗΣ 128 01:15:06 01:15:02 All Ages 71 Male
100 ΠΑΠΑΝΤΩΝΙΟΥ ΜΑΡΙΑ 127 01:15:06 01:15:02 All Ages 29 Female
101 ΤΑΚΤΙΚΟΥ ΙΩΑΝΝΑ 90 01:17:06 01:16:56 All Ages 30 Female
102 ΣΚΑΡΛΑΤΟΥ ΜΑΡΙΑ 82 01:18:37 01:18:29 All Ages 31 Female ΤΡΑΧΙΝΑ
103 ΔΕΜΕΡΟΥΤΗΣ ΑΝΤΩΝΗΣ 20 01:21:26 01:21:14 All Ages 72 Male
104 ΚΥΡΗΣ ΑΛΕΞΗΣ 116 01:21:26 01:21:18 All Ages 73 Male SANTA RUNNING TEAM
105 ΧΡΙΣΤΟΠΟΥΛΟΥ ΕΙΡΗΝΗ 118 01:21:26 01:21:20 All Ages 32 Female SANTA RUNNING TEAM
106 ΔΕΜΕΡΟΥΤΗ ΜΑΡΓΑΡΙΤΑ 19 01:21:27 01:21:17 All Ages 33 Female

Διαδρομή 5km

1 ΤΖΟΥΜΑΚΑΣ ΑΛΕΞΑΝΔΡΟΣ 983 00:17:45 00:17:45 All Ages 1 Male
2 ΝΙΝΗΣ ΑΝΔΡΕΑΣ 715 00:18:10 00:18:10 All Ages 2 Male ΑΠΣ ΜΙΛΤΙΑΔΗΣ
3 ΚΟΥΡΚΟΥΡΙΚΗΣ ΓΙΑΝΝΗΣ 962 00:19:49 00:19:48 All Ages 3 Male
4 ΓΚΑΝΙΑΤΣΟΣ ΠΑΝΑΓΙΩΤΗΣ 951 00:19:58 00:19:57 All Ages 4 Male SANTA RUNNING TEAM
5 ΠΑΠΑΔΟΠΟΥΛΟΣ ΑΛΕΞΑΝΔΡΟΣ 833 00:20:45 00:20:45 All Ages 5 Male ΠΣΠΑ
6 ΜΟΥΛΛΑΙ ΦΛΟΡΙΝΤΙ 904 00:21:26 00:21:26 All Ages 6 Male sifnos high school running team
7 ΕΛΕΥΘΕΡΟΓΛΟΥ ΔΗΜΗΤΡΗΣ 966 00:21:27 00:21:26 All Ages 7 Male
8 ΤΡΟΥΛΛΟΣ ΑΝΤΩΝΗΣ 940 00:21:54 00:21:53 All Ages 8 Male sifnos high school running team
9 ΤΖΙΩΤΗΣ ΗΛΙΑΣ 770 00:21:58 00:21:57 All Ages 9 Male NOVASPORTS RUNNING TEAM
10 ΙΓΓΛΕΖΟΣ ΠΑΝΑΓΙΩΤΗΣ 600 00:22:24 00:22:22 All Ages 10 Male
11 ΔΗΜΟΥ ΣΠΥΡΟΣ 575 00:22:31 00:22:31 All Ages 11 Male KORINTHIAKOS
12 ΛΙΒΑΝΙΟΥ ΚΕΛΛΥ 670 00:22:35 00:22:35 All Ages 1 Female ΙΕΡΑΞ ΠΛΑΚΩΝ ΜΗΛΟΥ
13 ΚΟΡΟ ΣΕΛΙΜ 889 00:22:38 00:22:38 All Ages 12 Male sifnos high school running team
14 ΜΠΟΥΝΙΑΛΕΤΟΣ ΝΙΚΟΣ 708 00:22:43 00:22:40 All Ages 13 Male ΣΔΥΑ
15 ΜΕΛΙΓΟΣ ΒΑΣΙΛΗΣ 830 00:22:46 00:22:46 All Ages 14 Male ΠΣΠΑ
16 ΠΑΠΑΓΓΕΛΕΤΟΣ ΝΙΚΟΣ 922 00:23:12 00:22:59 All Ages 15 Male sifnos high school running team
17 ΚΑΒΑΛΙΕΡΟΣ ΕΜΜΑΝΟΥΗΛ 601 00:23:19 00:23:19 All Ages 16 Male ΙΕΡΑΞ ΠΛΑΚΩΝ ΜΗΛΟΥ
18 ΒΑΜΒΟΥΝΗ ΑΣΗΜΙΝΑ 542 00:23:40 00:23:39 All Ages 2 Female
19 ΓΙΑΝΝΟΥΛΗΣ ΛΕΩΝΙΔΑΣ 564 00:23:47 00:23:44 All Ages 17 Male MOBYRUN
20 ΝΟΜΙΚΟΣ ΕΥΑΓΓΕΛΟΣ 832 00:24:11 00:23:52 All Ages 18 Male ΠΣΠΑ
21 ΤΟΥΡΚΑΚΗΣ ΑΡΙΣΤΕΙΔΗΣ 953 00:24:15 00:24:13 All Ages 19 Male SANTA RUNNING TEAM
22 ΡΟΥΠΑΚΙΩΤΗΣ ΓΕΡΑΣΙΜΟΣ 738 00:24:19 00:24:18 All Ages 20 Male
23 ΤΕΟ ΒΟΙΚΑ 972 00:24:24 00:24:11 All Ages 21 Male
24 ΣΟΥΛΚΑ ΒΕΡΙ 933 00:24:32 00:24:21 All Ages 22 Male sifnos high school running team
25 ΟΝΟΥΦΡΙΟΣ ΑΝΤΩΝΗΣ 919 00:24:34 00:24:33 All Ages 23 Male sifnos high school running team
26 ΠΟΡΙΩΤΗΣ ΓΙΑΝΝΗΣ 929 00:24:36 00:24:35 All Ages 24 Male sifnos high school running team
27 ΑΝΑΓΝΩΣΤΟΠΟΥΛΟΣ ΔΗΜΗΤΡΙΟΣ 519 00:24:36 00:24:29 All Ages 25 Male
28 ΚΟΡΑΚΗΣ ΑΝΔΡΕΑΣ 886 00:24:36 00:24:36 All Ages 26 Male sifnos high school running team
29 ΜΑΛΦΑΣ ΣΠΥΡΕΤΟΣ 827 00:24:55 00:24:55 All Ages 27 Male ΠΣΠΑ
30 ΠΑΠΑΤΡΙΑΝΤΑΦΥΛΛΟΥ ΤΡΥΦΩΝΑΣ 837 00:24:59 00:24:59 All Ages 28 Male ΠΣΠΑ
31 ΖΑΜΠΕΛΗΣ ΑΝΤΩΝΗΣ 874 00:25:11 00:25:05 All Ages 29 Male sifnos high school running team
32 ΓΙΑΝΝΟΥΛΗΣ ΓΕΩΡΓΙΟΣ 562 00:25:21 00:25:17 All Ages 30 Male HELLENIC NAVY
33 ΦΡΑΓΚΟΣ ΚΩΝΣΤΑΝΤΙΝΟΣ 942 00:25:22 00:25:01 All Ages 31 Male sifnos high school running team
34 ΑΤΣΟΝΙΟΣ ΧΡΗΣΤΟΣ 849 00:25:30 00:25:07 All Ages 32 Male sifnos high school running team
35 ΜΑΛΙΚΗ ΜΑΤΕΟ 896 00:25:31 00:25:30 All Ages 33 Male sifnos high school running team
36 ΚΑΥΚΟΠΟΥΛΟΣ ΚΩΝΣΤΑΝΤΊΝΟΣ 636 00:25:37 00:25:36 All Ages 34 Male
37 ΛΑΜΠΡΟΠΟΥΛΟΣ ΠΑΝΑΓΙΩΤΗΣ 666 00:25:48 00:25:24 All Ages 35 Male CAMPION SCHOOL
38 ΣΒΑΡΝΑ ΦΩΤΕΙΝΗ 952 00:25:49 00:25:36 All Ages 3 Female SANTA RUNNING TEAM
39 ΤΟΓΚΑΣ ΠΑΥΛΟΣ 773 00:25:54 00:25:28 All Ages 36 Male
40 ΚΟΤΣΙΡΑΣ ΓΕΩΡΓΙΟΣ 654 00:26:02 00:25:55 All Ages 37 Male
41 ΑΤΣΟΝΙΟΣ ΦΩΤΗΣ 532 00:26:10 00:25:44 All Ages 38 Male ΠΑΝΣΙΦΝΑΙΚΟΣ
42 ΓΕΩΡΓΟΥΛΗΣ ΒΑΣΙΛΗΣ 858 00:26:12 00:25:52 All Ages 39 Male sifnos high school running team
43 ΑΛΙΤΟ ΠΕΤΡΟ 517 00:26:19 00:25:53 All Ages 40 Male
44 ΒΑΜΒΟΥΝΗΣ ΚΩΣΤΑΝΤΙΝΟΣ 544 00:26:21 00:26:19 All Ages 41 Male
45 ΓΕΩΡΓΟΥΛΗΣ ΘΑΝΑΣΗΣ 860 00:26:23 00:26:22 All Ages 42 Male sifnos high school running team
46 ΜΑΓΓΙΝΑ ΕΛΕΝΗ 677 00:26:29 00:26:22 All Ages 4 Female
47 ΤΟΛΙΟΣ ΔΟΛΙΟΣ ΑΘΑΝΑΣΙΟΣ 840 00:26:37 00:26:17 All Ages 43 Male ΠΣΠΑ
48 ΜΠΕΛΕΣΑΚΟΥ ΚΑΤΕΡΙΝΑ 911 00:26:40 00:26:36 All Ages 5 Female sifnos high school running team
49 ΒΑΡΒΕΡΑΚΗΣ ΓΙΑΝΝΗΣ 816 00:26:46 00:26:46 All Ages 44 Male ΠΣΠΑ
50 ΜΟΥΡΤΖΑΝΟΣ ΚΩΣΤΑΣ 699 00:26:51 00:26:44 All Ages 45 Male
51 ΓΑΒΑΛΙΑ ΑΛΕΞΑΝΔΡΑ 817 00:26:57 00:26:56 All Ages 6 Female ΠΣΠΑ
52 GRUTTERIA SAMANTHA 506 00:26:57 00:26:55 All Ages 7 Female RED & BLACK ESSENDON
53 ΚΟΛΩΝΙΑΣ ΣΠΥΡΟΣ 643 00:27:04 00:27:02 All Ages 46 Male ORIGINAL 21
54 ΚΟΡΑΚΗΣ ΑΝΔΡΕΑΣ 885 00:27:10 00:27:00 All Ages 47 Male sifnos high school running team
55 ΓΙΑΧΟ ΙΝΤΡΙΣ 861 00:27:13 00:27:13 All Ages 48 Male sifnos high school running team
56 ΚΑΛΟΓΗΡΟΥ ΚΩΝΣΤΑΝΤΙΝΟΣ 611 00:27:14 00:27:11 All Ages 49 Male
57 ΖΑΜΠΕΛΗΣ ΣΙΜΟΣ 875 00:27:15 00:26:55 All Ages 50 Male sifnos high school running team
58 ΒΑΜΒΟΥΝΗ ΑΓΓΕΛΙΚΗ 541 00:27:19 00:27:13 All Ages 8 Female
59 ΚΑΛΟΓΗΡΟΥ ΑΝΑΣΤΑΣΙΑ 987 00:27:26 00:27:21 All Ages 9 Female
60 ΤΡΟΥΛΛΟΣ ΑΝΤΩΝΗΣ 780 00:27:33 00:27:33 All Ages 51 Male
61 ΠΟΔΟΤΑΣ ΣΥΜΕΩΝ 973 00:27:36 00:27:14 All Ages 52 Male
62 ΣΠΑΝΟΥ ΕΙΡΗΝΗ 752 00:27:37 00:27:35 All Ages 10 Female Marathon Team Greece By Maria Polyzou
63 ΣΙΑΜΑΝΙΚΟΥ ΦΑΝΗ 80 00:27:38 00:27:38 All Ages 11 Female MARATHON TEAM
64 ΖΕΡΒΟΥ ΜΑΡΓΑΡΙΤΑ 588 00:27:41 00:27:35 All Ages 12 Female
65 ΓΙΑΝΝΟΥΛΗΣ ΑΠΟΣΤΟΛΟΣ 561 00:27:44 00:27:40 All Ages 53 Male MAROUSSI RUN
66 ΣΟΦΟΣ ΑΝΤΩΝΙΟΣ 87 00:27:44 00:27:35 All Ages 54 Male Σ.Δ.Υ.Θ
67 ΣΟΥΣΑΝΗΣ ΣΩΤΗΡΙΟΣ 750 00:27:56 00:27:49 All Ages 55 Male
68 ΣΩΤΗΡΗΣ ΑΘΑΝΑΣΙΟΣ 762 00:27:56 00:27:49 All Ages 56 Male
69 ΚΕΛΑΙΔΗ ΕΥΑΓΓΕΛΙΑ 638 00:28:02 00:28:01 All Ages 13 Female Γ.Σ.Η
70 ΚΟΡΑΚΗΣ ΜΙΧΑΛΗΣ 888 00:28:07 00:27:57 All Ages 57 Male sifnos high school running team
71 ΜΑΝΙΑ ΑΙΚΑΤΕΡΙΝΗ 684 00:28:08 00:27:59 All Ages 14 Female
72 ΜΑΥΡΟΥΔΗ ΜΥΡΤΩ ΧΡΙΣΤΙΝΑ 696 00:28:09 00:27:45 All Ages 15 Female
73 ΧΡΥΣΟΣ ΑΝΤΩΝΙΟΣ 814 00:28:11 00:27:50 All Ages 58 Male
74 ΒΑΖΑΚΟΠΟΥΛΟΣ ΑΝΑΣΤΑΣΙΟΣ 540 00:28:12 00:28:07 All Ages 59 Male
75 ΚΕΛΑΙΔΗΣ ΙΩΣΗΦ 639 00:28:13 00:28:12 All Ages 60 Male Γ.Σ.Η
76 ΤΡΑΠΑΛΗ ΜΑΡΙΑ 777 00:28:14 00:28:14 All Ages 16 Female
77 ΜΠΑΛΑΜΠΑΝΗΣ ΑΡΗΣ 702 00:28:17 00:27:54 All Ages 61 Male
78 ΠΟΡΙΩΤΗΣ ΑΠΟΣΤΟΛΟΣ 928 00:28:19 00:27:57 All Ages 62 Male sifnos high school running team
79 ΣΤΑΥΡΟΠΟΥΛΟΥ ΜΑΡΙΑ ΕΙΡΗΝΗ 755 00:28:21 00:28:15 All Ages 17 Female
80 ΑΘΑΝΑΣΙΑΔΗ ΜΑΡΙΛΕΝΑ 512 00:28:33 00:28:31 All Ages 18 Female Marathon Team Greece By Maria Polyzou
81 ΧΛΕΤΣΟΣ ΑΡΓΥΡΗΣ 807 00:28:33 00:27:59 All Ages 63 Male
82 ΠΥΡΗΑ ΑΝΤΡΕΑΣ 963 00:28:37 00:28:24 All Ages 64 Male
83 ΤΣΟΠΑΝΕΛΛΗΣ ΒΙΚΕΝΤΙΟΣ 790 00:28:38 00:28:36 All Ages 65 Male
84 ΦΑΡΑΝΤΖΟΥ ΧΡΙΣΤΙΝΑ 792 00:28:39 00:25:20 All Ages 19 Female
85 ΚΑΖΑΝΑ ΣΤΑΥΡΟΥΛΑ 602 00:28:44 00:28:32 All Ages 20 Female
86 ΓΚΟΛΕΤΣΟΥ ΜΑΡΙΑΝΤΙΝΑ 865 00:28:45 00:28:43 All Ages 21 Female sifnos high school running team
87 ΤΣΙΜΟΓΙΑΝΝΗΣ ΒΑΣΙΛΕΙΟΣ 785 00:28:50 00:28:46 All Ages 66 Male
88 ΚΟΜΗ ΔΑΦΝΗ 884 00:28:54 00:28:31 All Ages 22 Female sifnos high school running team
89 ΠΡΟΣΑΛΙΚΑ ΔΑΦΝΗ 733 00:28:54 00:28:43 All Ages 23 Female
90 ΡΕΝΙΕΡΗΣ ΑΝΔΡΟΚΛΗΣ 838 00:28:59 00:28:39 All Ages 67 Male ΠΣΠΑ
91 ΦΑΡΑΝΤΖΟΥ ΕΛΕΝΑ 791 00:29:06 00:25:48 All Ages 24 Female
92 ΚΩΣΤΟΛΙΑΣ ΦΩΤΗΣ 662 00:29:14 00:28:56 All Ages 68 Male
93 ΘΕΟΔΩΡΑΤΟΣ ΝΙΚΟΣ 592 00:29:14 00:29:14 All Ages 69 Male
94 ΒΑΜΒΟΥΝΗ ΜΑΡΓΑΡΙΤΑ 543 00:29:16 00:29:08 All Ages 25 Female
95 ΑΤΣΟΝΙΟΥ ΜΑΡΙΑ 535 00:29:16 00:28:59 All Ages 26 Female
96 ΜΕΛΙΓΟΣ ΑΘΑΝΑΣΙΟΣ 829 00:29:21 00:29:17 All Ages 70 Male ΠΣΠΑ
97 ΡΕΚΚΑ ΕΛΕΝΗ 78 00:29:24 00:29:19 All Ages 27 Female ΦΙΛΑΘΛΗΤΙΚΟΣ ΛΑΜΙΑΣ
98 ΚΑΠΕΡΩΝΗΣ ΑΘΑΝΑΣΙΟΣ 823 00:29:24 00:29:05 All Ages 71 Male ΠΣΠΑ
99 ΚΑΜΠΟΥΡΙΔΗΣ ΜΙΛΤΟΣ 618 00:29:37 00:29:32 All Ages 72 Male
100 ΜΠΑΣΑΙ ΑΛΕΞΑΝΔΡΟΣ 906 00:29:38 00:29:37 All Ages 73 Male sifnos high school running team
101 ΑΛΕΒΙΖΑΚΗ ΑΘΑΝΑΣΙΑ 968 00:29:41 00:29:25 All Ages 28 Female
102 ΜΑΣΤΡΟΚΑΛΟΣ ΓΙΑΝΝΗΣ 901 00:29:43 00:29:33 All Ages 74 Male sifnos high school running team
103 ΤΡΕΜΟΥΝΤΑΝΗ ΑΝΑΣΤΑΣΙΑ ΜΑΝΙΑ 778 00:29:47 00:29:40 All Ages 29 Female
104 ΚΟΜΗΣ ΑΝΤΩΝΗΣ 644 00:29:49 00:29:38 All Ages 75 Male
105 ΓΟΥΒΑΛΗ ΜΑΡΙΝΑ 819 00:30:05 00:29:47 All Ages 30 Female ΠΣΠΑ
106 ΣΚΑΝΔΑΛΗ ΦΛΩΡΑ 745 00:30:18 00:30:12 All Ages 31 Female
107 ΛΑΜΠΑΔΙΑΡΗΣ ΚΩΣΤΑΣ 663 00:30:20 00:30:10 All Ages 76 Male ΑΝΕΞΡΤΗΤΟΣ
108 ΡΑΠΤΗ ΕΛΕΝΗ 736 00:30:24 00:30:13 All Ages 32 Female
109 ΣΑΚΕΛΛΑΡΟΠΟΥΛΟΣ ΠΑΝΟΣ 739 00:30:26 00:29:57 All Ages 77 Male
110 ΔΙΑΡΕΜΕΣ ΑΠΟΣΤΟΛΗΣ 870 00:30:30 00:30:18 All Ages 78 Male sifnos high school running team
111 FELDMAN DAVID 504 00:30:31 00:30:03 All Ages 79 Male
112 ΡΟΔΙΤΑΚΗΣ ΓΙΑΝΝΗΣ 977 00:30:33 00:30:05 All Ages 80 Male
113 ΟΝΟΥΦΡΙΟΥ ΑΝΝΑ 920 00:30:35 00:30:33 All Ages 33 Female sifnos high school running team
114 ΖΑΜΠΕΛΗ ΣΤΑΥΡΟΥΛΑ 873 00:30:36 00:30:29 All Ages 34 Female sifnos high school running team
115 ΝΤΟΥΣΚΑΣ ΜΙΧΑΛΗΣ 976 00:30:37 00:30:08 All Ages 81 Male
116 ΓΕΩΡΓΟΥΛΗΣ ΓΙΑΝΝΗΣ 859 00:30:41 00:30:30 All Ages 82 Male sifnos high school running team
117 ΦΑΡΜΑΚΗ ΚΩΝΣΤΑΝΤΙΝΑ 793 00:30:41 00:30:33 All Ages 35 Female
118 ΔΗΜΟΠΟΥΛΟΣ ΧΡΗΣΤΟΣ 574 00:30:41 00:30:31 All Ages 83 Male
119 ΖΑΡΟΣ ΑΝΤΩΝΗΣ 876 00:30:51 00:30:51 All Ages 84 Male sifnos high school running team
120 ΒΑΣΙΛΕΙΟΥ ΔΗΜΗΤΡΙΟΣ 961 00:30:58 00:30:58 All Ages 85 Male
121 ΚΟΜΗΣ ΜΑΝΩΛΗΣ 645 00:30:59 00:30:35 All Ages 86 Male
122 ΤΡΑΓΙΑΝΟΥ ΣΕΒΗ 774 00:31:00 00:30:42 All Ages 36 Female “””ΜΠΕΛΛΕΣ”””
123 ΧΟΥΖΟΥΡΗΣ ΣΥΜΕΩΝ 946 00:31:00 00:30:38 All Ages 87 Male sifnos high school running team
124 ΜΑΝΑΡΑ ΜΥΡΤΩ 828 00:31:05 00:30:43 All Ages 37 Female ΠΣΠΑ
125 ΤΖΟΥΜΑΚΑΣ ΓΕΩΡΓΙΟΣ 982 00:31:06 00:31:03 All Ages 88 Male
126 ΖΑΜΠΕΛΗ ΑΝΝΑ 581 00:31:11 00:30:56 All Ages 38 Female
127 ΑΡΒΑΝΙΤΑΚΟΣ ΒΑΙΟΣ 815 00:31:14 00:30:53 All Ages 89 Male ΠΣΠΑ
128 ΠΑΠΑΔΟΠΟΥΛΟΥ ΣΤΕΛΛΑ 835 00:31:17 00:30:56 All Ages 39 Female ΠΣΠΑ
129 ΓΚΟΥΣΗΣ ΕΥΑΓΓΕΛΟΣ 818 00:31:17 00:31:16 All Ages 90 Male ΠΣΠΑ
130 ΛΙΑΤΗΡΑ ΜΑΡΚΓΩ 669 00:31:19 00:31:08 All Ages 40 Female
131 MARTINES CATHERINE 507 00:31:25 00:31:22 All Ages 41 Female ΑΝΕΞΑΡΗΤΗΤ
132 ΧΑΛΙΚΙΟΠΟΥΛΟΥ ΜΑΓΔΑΛΗΝΗ 799 00:31:27 00:31:05 All Ages 42 Female
133 ΜΑΝΤΖΟΥΡΑΝΗΣ ΑΝΤΩΝΗΣ 900 00:31:36 00:31:27 All Ages 91 Male sifnos high school running team
134 ΤΣΕΡΕΜΕΓΚΛΗ ΑΛΕΞΑΝΔΡΑ 969 00:31:43 00:31:28 All Ages 43 Female
135 ΞΥΛΟΥΡΗΣ ΧΑΡΗΣ 718 00:31:45 00:31:27 All Ages 92 Male
136 ΚΑΡΑΒΟΥ ΦΛΩΡΑ 883 00:31:51 00:31:32 All Ages 44 Female sifnos high school running team
137 ΣΚΙΑΔΑΣ ΣΠΥΡΟΣ 747 00:31:54 00:31:49 All Ages 93 Male
138 ΧΡΙΣΤΟΦΙΛΟΠΟΥΛΟΥ ΟΛΓΑ 812 00:31:54 00:31:49 All Ages 45 Female
139 ΑΤΣΟΝΙΟΥ ΦΛΩΡΑ 537 00:31:55 00:31:39 All Ages 46 Female
140 ΜΑΝΤΖΟΠΟΥΛΟΣ ΓΕΩΡΓΙΟΣ 687 00:31:57 00:31:40 All Ages 94 Male
141 ΑΓΓΕΛΑΚΗΣ ΓΙΑΝΝΗΣ 510 00:31:59 00:31:53 All Ages 95 Male RUNNINGREECE
142 ΓΚΟΒΑ ΜΑΡΙΖΕΤΑ 863 00:31:59 00:31:52 All Ages 47 Female sifnos high school running team
143 ΔΟΥΚΑ ΑΓΑΠΗ 871 00:31:59 00:31:53 All Ages 48 Female sifnos high school running team
144 ΜΠΟΥΚΑ ΟΥΡΑΝΙΑ 707 00:32:02 00:31:53 All Ages 49 Female
145 ΤΣΙΝΑ ΝΙΚΟΛΑ 787 00:32:08 00:31:54 All Ages 96 Male
146 ΣΑΡΓΚΑΝΗ ΟΛΓΑ 740 00:32:12 00:32:12 All Ages 50 Female
147 ΜΑΝΤΟΠΟΥΛΟΣ ΣΩΤΗΡΗΣ 690 00:32:14 00:32:13 All Ages 97 Male
148 ΠΑΠΑΚΩΣΤΑΣ ΜΑΡΙΟΣ 955 00:32:23 00:32:08 All Ages 98 Male SANTA RUNNING TEAM
149 ΦΑΦΑΛΙΟΣ ΚΩΝΣΤΑΝΤΙΝΟΣ 794 00:32:32 00:32:20 All Ages 99 Male
150 ΚΟΡΑΚΗ ΦΛΩΡΑ 649 00:32:32 00:32:14 All Ages 51 Female
151 ΠΑΠΑΝΑΣΤΑΣΙΟΥ ΑΓΓΕΛΙΚΗ 979 00:32:35 00:32:22 All Ages 52 Female
152 ΖΑΧΑΡΑΚΗ ΕΥΓΕΝΙΑ 582 00:32:39 00:32:37 All Ages 53 Female
153 ΜΠΕΡΖΕΣΤΑ ΑΡΜΑΝΤΟ 915 00:32:40 00:32:27 All Ages 100 Male sifnos high school running team
154 ΧΑΤΖΟΠΟΥΛΟΣ ΚΩΝΣΤΑΝΤΙΝΟΣ 802 00:32:46 00:32:17 All Ages 101 Male
155 ΣΥΜΕΩΝ ΣΟΦΙΑ 760 00:32:46 00:32:27 All Ages 54 Female
156 ΚΙΤΡΙΛΑΚΗΣ ΝΙΚΟΛΑΟΣ 985 00:32:49 00:32:40 All Ages 102 Male
157 ΓΕΩΡΓΑΝΤΑΣ ΑΛΕΞΑΝΔΡΟΣ 555 00:32:49 00:32:37 All Ages 103 Male
158 ΚΑΡΕΛΙΩΤΗ ΑΝΤΩΝΙΑ 628 00:32:58 00:32:50 All Ages 55 Female MARATHON TEAM GREECE MARIA POLYZOU
159 ΑΡΒΑΝΙΤΑΚΗ ΑΘΗΝΑ 967 00:32:59 00:32:45 All Ages 56 Female
160 ΑΤΣΟΝΙΟΣ ΓΕΩΡΓΙΟΣ 531 00:32:59 00:32:29 All Ages 104 Male
161 ΑΤΣΟΝΙΟΥ ΜΑΡΓΑΡΙΤΑ 850 00:33:00 00:32:35 All Ages 57 Female sifnos high school running team
162 ΛΟΥΡΑΝΤΟΣ ΞΕΝΟΦΩΝ 674 00:33:00 00:32:23 All Ages 105 Male ATT ATHENS TRIATHLON TEAM
163 ΚΑΨΑΛΗ ΔΑΦΝΗ 637 00:33:01 00:32:51 All Ages 58 Female
164 ΚΑΡΑΒΟΣ ΓΙΑΝΝΗΣ 625 00:33:02 00:32:41 All Ages 106 Male
165 ΚΑΤΣΑΚΟΣ ΔΗΜΗΤΡΙΟΣ 632 00:33:03 00:32:45 All Ages 107 Male
166 ΑΤΣΟΝΙΟΥ ΚΩΝΣΤΑΝΤΙΝΑ 978 00:33:07 00:32:51 All Ages 59 Female
167 ΚΑΡΑΒΗΣ ΝΙΚΟΣ 624 00:33:11 00:33:11 All Ages 108 Male
168 ΑΝΤΟΝΙΑΝ ΑΝΙ 522 00:33:17 00:33:01 All Ages 60 Female
169 ΛΟΥΡΑΝΤΟΣ ΠΑΝΑΓΙΩΤΗΣ 675 00:33:18 00:32:45 All Ages 109 Male ATHENS TRIATHLON TEAM
170 ΤΖΟΥΜΑΚΑΣ ΓΡΗΓΟΡΙΟΣ 984 00:33:28 00:33:25 All Ages 110 Male
171 ΧΡΙΣΤΟΠΟΥΛΟΣ ΜΑΝΩΛΗΣ 809 00:33:28 00:32:59 All Ages 111 Male
172 ΖΑΛΩΝΗ ΣΤΕΛΛΑ 580 00:33:30 00:33:10 All Ages 61 Female
173 ΜΑΝΤΖΑΝΑ ΦΩΤΕΙΝΗ 685 00:33:30 00:33:25 All Ages 62 Female
174 ΒΕΝΙΟΣ ΓΙΑΝΝΗΣ 851 00:33:31 00:33:08 All Ages 112 Male sifnos high school running team
175 ΚΟΣΚΟΛΕΤΟΥ ΘΕΟΔΩΡΑ 653 00:33:37 00:33:28 All Ages 63 Female
176 ΓΚΑΠΡΙΝΤΑΣΒΙΛΗ ΜΑΡΙΑΜ 565 00:33:39 00:33:30 All Ages 64 Female
177 ΛΙΝΑΤΣΑΣ ΓΕΩΡΓΙΟΣ 671 00:33:44 00:33:44 All Ages 113 Male
178 ΚΟΝΤΟΡΟΥΣΗ ΜΟΣΧΟΥΛΑ 647 00:33:49 00:33:42 All Ages 65 Female
179 ΜΠΑΣΑΙ ΚΑΤΕΡΙΝΑ 907 00:33:50 00:33:41 All Ages 66 Female sifnos high school running team
180 ΓΕΡΟΝΤΗ ΜΑΡΙΑΛΕΝΑ 554 00:33:57 00:33:41 All Ages 67 Female
181 ΕΛΕΥΘΕΡΙΑΔΗΣ ΣΤΕΛΙΟΣ 821 00:34:05 00:33:47 All Ages 114 Male ΠΣΠΑ
182 ΜΠΟΥΡΑΣ ΓΕΩΡΓΙΟΣ 709 00:34:10 00:34:05 All Ages 115 Male
183 ΙΩΑΝΝΟΥ ΓΕΩΡΓΙΟΣ 822 00:34:12 00:33:57 All Ages 116 Male ΠΣΠΑ
184 ΜΑΜΙΔΑ ΜΑΡΙΑ 683 00:34:12 00:34:10 All Ages 68 Female
185 ΚΑΛΑΜΑΡΗΣ ΒΑΣΙΛΗΣ 877 00:34:23 00:34:12 All Ages 117 Male sifnos high school running team
186 ΔΕΠΑΣΤΑΣ ΜΙΧΑΛΗΣ 570 00:34:28 00:34:07 All Ages 118 Male
187 ΤΣΙΚΟΥΡΑ ΑΝΝΑ 784 00:34:28 00:34:21 All Ages 69 Female
188 ΚΥΡΙΑΚΟΠΟΥΛΟΥ ΠΑΝΑΓΙΩΤΑ 959 00:34:34 00:34:24 All Ages 70 Female
189 ΓΕΩΡΓΟΥΛΗ ΑΝΑΣΤΑΣΙΑ 856 00:34:35 00:34:16 All Ages 71 Female sifnos high school running team
190 ΣΙΔΕΡΑΚΗ ΣΩΤΗΡΙΑ 744 00:34:39 00:34:37 All Ages 72 Female
191 ΒΕΛΛΗΣ ΑΝΤΩΝΗΣ 548 00:34:40 00:34:40 All Ages 119 Male
192 ΨΑΘΑ ΕΙΡΗΝΗ 844 00:34:40 00:34:20 All Ages 73 Female ΠΣΠΑ
193 ΚΑΛΑΜΑΡΗΣ ΝΙΚΟΛΑΟΣ 878 00:34:43 00:34:33 All Ages 120 Male sifnos high school running team
194 ΚΑΛΟΥΔΑ ΒΑΣΙΛΙΚΗ 614 00:34:44 00:34:37 All Ages 74 Female RUNNINGREECE
195 ΔΡΥΓΙΑΝΝΑΚΗ ΑΡΤΕΜΙΣ 578 00:34:44 00:34:40 All Ages 75 Female
196 ΜΥΤΙΛΗΝΑΙΟΥ ΑΓΛΑΪ́Α 711 00:34:54 00:34:50 All Ages 76 Female
197 ΤΖΟΜΠΑΝΑΚΗ ΚΥΡΙΑΚΗ 771 00:34:54 00:34:43 All Ages 77 Female
198 ΚΑΛΛΙΚΗ ΑΙΚΑΤΕΡΙΝΗ 608 00:34:58 00:34:40 All Ages 78 Female
199 ΚΟΡΑΚΗΣ ΜΑΡΙΑ 887 00:35:00 00:34:48 All Ages 79 Female sifnos high school running team
200 ΖΑΧΑΡΑΚΗ ΚΑΤΕΡΙΝΑ 583 00:35:00 00:34:58 All Ages 80 Female
201 ΑΡΜΕΛΙΝΙΟΣ ΑΠΟΣΤΟΛΟΣ 527 00:35:02 00:34:50 All Ages 121 Male
202 ΤΑΠΙΝΗ ΛΑΟΥΡΑ 763 00:35:15 00:35:00 All Ages 81 Female DIADRASIS
203 ΣΤΑΜΑΤΟΓΛΟΥ ΔΑΝΑΗ 753 00:35:20 00:35:07 All Ages 82 Female
204 ΑΠΟΣΤΟΛΙΔΗ ΜΑΡΓΑΡΙΤΑ 525 00:35:22 00:35:05 All Ages 83 Female
205 ΚΤΕΝΑ ΖΕΤΑ 659 00:35:31 00:35:19 All Ages 84 Female
206 ΧΡΙΣΤΟΦΙΛΗΣ ΓΕΩΡΓΙΟΣ 811 00:35:51 00:35:43 All Ages 122 Male
207 ΚΑΝΙΚΛΙΔΟΥ ΘΕΜΙΣ 621 00:35:55 00:35:55 All Ages 85 Female
208 ΛΥΡΑΣ ΗΛΙΑΣ 676 00:35:55 00:35:40 All Ages 123 Male
209 ΠΙΤΣΙΝΟΥ ΚΑΤΕΡΙΝΑ 926 00:35:56 00:35:46 All Ages 86 Female sifnos high school running team
210 ΠΟΥΡΙΚΙ ΕΣΜΕΡΑΛΝΤΑ 112 00:36:01 00:35:42 All Ages 87 Female sifnos high school running team
211 ΧΙΩΤΗ ΚΩΣΤΑΝΤΙΝΑ 754 00:36:04 00:36:04 All Ages 88 Female
212 BIGNOTTO ALESSANDRA 503 00:36:09 00:35:43 All Ages 89 Female
213 ΣΑΡΗΓΙΑΝΝΙΔΟΥ ΜΕΛΙΝΑ 741 00:36:10 00:35:55 All Ages 90 Female
214 ΒΛΑΧΑΚΗ ΚΑΤΕΡΙΝΑ 552 00:36:10 00:35:54 All Ages 91 Female
215 ΜΠΕΚΙΟΥ ΚΑΤΕΡΙΝΑ 706 00:36:13 00:35:56 All Ages 92 Female
216 ΨΑΛΛΙΔΑ ΙΩΑΝΝΑ 845 00:36:18 00:35:57 All Ages 93 Female ΠΣΠΑ
217 ΣΠΑΝΟΥ ΕΥΤΥΧΙΑ-ΝΕΦΕΛΗ 839 00:36:19 00:36:00 All Ages 94 Female ΠΣΠΑ
218 ΠΑΠΑΔΟΠΟΥΛΟΥ ΔΗΜΗΤΡΑ 834 00:36:23 00:36:05 All Ages 95 Female ΠΣΠΑ
219 ΜΠΡΑΝΗ ΚΛΕΟΠΑΤΡΑ 831 00:36:23 00:36:02 All Ages 96 Female ΠΣΠΑ
220 ΚΟΡΑΚΗΣ ΓΙΩΡΓΟΣ 650 00:36:24 00:36:04 All Ages 124 Male
221 ΒΟΥΒΟΝΙΚΟΣ ΒΑΣΙΛΕΙΟΣ 553 00:36:25 00:36:16 All Ages 125 Male
222 ΠΟΡΙΩΤΗ ΦΛΩΡΑ 927 00:36:27 00:36:02 All Ages 97 Female sifnos high school running team
223 ΓΕΩΡΓΟΥΛΗ ΚΑΤΕΡΙΝΑ 857 00:36:28 00:36:04 All Ages 98 Female sifnos high school running team
224 ΦΩΤΙΑΔΟΥ ΝΙΚΟΛΕΤΑ 797 00:36:41 00:36:24 All Ages 99 Female
225 ΒΟΙΚΑ ΙΛΝΤΑ 853 00:36:43 00:36:17 All Ages 100 Female sifnos high school running team
226 ΝΕΡΟΥΤΣΟΥ ΑΝΝΑ ΜΑΡΙΑ 713 00:36:45 00:36:20 All Ages 101 Female
227 ΜΠΕΓΚΟ ΒΑΛΕΡΙΑ 908 00:36:49 00:36:24 All Ages 102 Female sifnos high school running team
228 ΝΙΚΑ ΣΟΦΙΑ 714 00:36:50 00:36:20 All Ages 103 Female
229 ΑΡΜΕΛΙΝΙΟΥ ΜΑΡΓΑΡΙΤΑ 528 00:37:04 00:36:53 All Ages 104 Female
230 ΤΟΓΚΑ ΑΝΔΡΙΑΝΑ 772 00:37:04 00:36:39 All Ages 105 Female
231 ΜΑΝΤΖΙΑΓΡΗ ΕΥΘΥΜΙΑ 686 00:37:11 00:36:59 All Ages 106 Female ΕΙΡΗΝΗ ΔΑΝΙΗΛ PERSONAL TRAINING
232 ΜΑΚΡΙΝΟΣ ΓΕΩΡΓΙΟΣ 682 00:37:13 00:37:09 All Ages 126 Male
233 ΚΑΛΟΓΗΡΟΥ ΝΙΚΟΣ 612 00:37:15 00:36:59 All Ages 127 Male
234 ΚΑΛΟΓΗΡΟΥ ΣΤΑΥΡΟΣ 613 00:37:15 00:36:59 All Ages 107 Female
235 ΜΠΟΥΡΛΑ ΙΩΑΝΝΑ 710 00:37:18 00:37:14 All Ages 108 Female
236 ΚΑΡΑΝΙΚΟΛΑ ΓΕΩΡΓΙΑ 824 00:37:22 00:37:02 All Ages 109 Female ΠΣΠΑ
237 ΜΑΡΚΑΤΟΥ ΕΙΡΗΝΗ 693 00:37:34 00:37:28 All Ages 110 Female
238 ΚΑΤΣΟΥΛΑΚΗ ΑΝΝΑ 634 00:37:34 00:37:30 All Ages 111 Female
239 ΜΠΕΝΑΚΗ ΦΛΩΡΑ 913 00:37:37 00:37:19 All Ages 112 Female sifnos high school running team
240 ΒΑΣΙΛΑ ΑΝΝΑ 546 00:38:00 00:37:56 All Ages 113 Female
241 ΓΚΟΥΝΤΟΣ ΧΡΗΣΤΟΣ 566 00:38:01 00:37:34 All Ages 128 Male ΑΠΣ ΑΘΗΝΑΙΟΙ ΔΡΟΜΕΙΣ
242 ΣΥΚΙΩΤΗ ΤΖΩΡΤΖΙΑ 759 00:38:07 00:37:49 All Ages 114 Female ΑΝΕΞΑΡΤΗΤΩΣ
243 ΜΠΑΝΤΟΥΝΟΥ ΜΑΡΙΑ 705 00:38:07 00:37:48 All Ages 115 Female
244 ΚΟΡΕΝΤΗ ΕΛΕΝΗ 651 00:38:08 00:37:59 All Ages 116 Female
245 ΧΡΥΣΑΦΗ ΖΩΗ 813 00:38:10 00:37:50 All Ages 117 Female
246 ΚΟΡΑΚΗ ΑΝΝΑ 648 00:38:11 00:37:58 All Ages 118 Female
247 ΤΡΟΥΛΛΟΥ ΕΒΕΛΙΝΑ 941 00:38:12 00:38:03 All Ages 119 Female sifnos high school running team
248 ΣΤΑΥΡΙΑΝΟΥ ΜΥΡΣΙΝΗ 934 00:38:15 00:38:07 All Ages 120 Female sifnos high school running team
249 ΜΟΥΛΛΑΙ ΑΙΜΙΛΙΑ 903 00:38:17 00:38:06 All Ages 121 Female sifnos high school running team
250 ΑΛΕΞΙΑΔΟΥ ΗΡΩ- ΠΑΝΑΓΙΩΤΑ 514 00:38:20 00:38:12 All Ages 122 Female
251 GADE TIERRY 505 00:38:22 00:37:56 All Ages 129 Male
252 ΘΕΟΔΩΡΟΠΟΥΛΟΥ ΔΙΑΜΑΝΤΩ 597 00:38:23 00:37:56 All Ages 123 Female ΦΛΟΓΑ
253 ΜΑΝΩΛΑΚΗΣ ΗΛΙΑΣ 54 00:38:27 00:38:27 All Ages 130 Male
254 ΚΟΤΖΑΚΩΝΣΤΑΝΤΙΝΟΥ ΧΡΙΣΤΙΝΑ 826 00:38:30 00:38:14 All Ages 124 Female ΠΣΠΑ
255 ΜΠΕΝΑΚΗ ΧΡΥΣΟΠΗΓΗ 914 00:38:41 00:38:22 All Ages 125 Female sifnos high school running team
256 ΚΑΤΣΟΥΛΗ ΔΕΣΠΟΙΝΑ 635 00:38:42 00:38:27 All Ages 126 Female
257 ΓΑΛΙΦΟΥ ΚΑΤΕΡΙΝΑ 855 00:38:46 00:38:38 All Ages 127 Female sifnos high school running team
258 ΚΑΡΑΒΟΥ ΜΑΡΙΑ 882 00:38:47 00:38:22 All Ages 128 Female sifnos high school running team
259 ANGHEL EIRINI 501 00:38:48 00:38:41 All Ages 129 Female
260 ΜΠΕΝΑΚΗ ΕΛΕΥΘΕΡΙΑ 912 00:38:48 00:38:22 All Ages 130 Female sifnos high school running team
261 ΑΤΣΟΝΙΟΣ ΑΛΕΞΑΝΔΡΟΣ 530 00:38:49 00:38:30 All Ages 131 Male
262 ΤΖΕΜΑ ΕΡΜΑ 936 00:38:51 00:38:28 All Ages 131 Female sifnos high school running team
263 ΨΑΡΑΥΤΗΣ ΓΙΑΝΝΗΣ 949 00:39:01 00:38:42 All Ages 132 Male sifnos high school running team
264 ΚΟΥΚΗ ΚΩΝΣΤΑΝΤΙΝΑ 655 00:39:06 00:38:50 All Ages 132 Female
265 ΧΕΙΛΑΡΗ ΤΖΩΡΤΖΙΝΑ 804 00:39:08 00:39:05 All Ages 133 Female
266 ΒΕΡΝΙΚΟΥ ΜΑΡΙΝΑ 551 00:39:09 00:39:05 All Ages 134 Female
267 ΚΑΜΠΟΥΡΙΔΟΥ ΚΑΛΛΙΑ 619 00:39:09 00:39:06 All Ages 135 Female
268 ΠΟΥΛΟΠΑΤΗ ΝΕΦΕΛΗ 731 00:39:14 00:38:49 All Ages 136 Female CAMPION SCHOLL
269 ΑΠΟΣΤΟΛΟΠΟΥΛΟΥ ΟΛΓΑ 526 00:39:19 00:39:02 All Ages 137 Female
270 ΤΡΙΜΜΗ ΝΕΛΛΗ 938 00:39:21 00:39:16 All Ages 138 Female sifnos high school running team
271 ΑΝΤΑΡΤΗ ΑΛΕΞΑΝΔΡΑ 848 00:39:22 00:39:16 All Ages 139 Female sifnos high school running team
272 ΠΑΠΑΓΓΕΛΕΤΟΥ ΜΑΡΙΑ 923 00:39:27 00:39:04 All Ages 140 Female sifnos high school running team
273 ΘΕΟΔΩΡΑΤΟΥ ΜΑΡΙΑ 596 00:39:33 00:39:17 All Ages 141 Female
274 ΔΙΑΡΕΜΕ ΧΡΥΣΟΠΗΓΗ 869 00:39:42 00:39:32 All Ages 142 Female sifnos high school running team
275 ΚΑΣΤΡΙΝΑΚΗ ΑΘΗΝΑ 631 00:39:51 00:39:44 All Ages 143 Female
276 ΠΡΟΚΟΥ ΜΑΡΓΑΡΙΤΑ 732 00:39:53 00:39:46 All Ages 144 Female
277 ΜΑΛΙΚΗ ΤΖΟΥΛΙΑΝΑ 897 00:39:57 00:39:47 All Ages 145 Female sifnos high school running team
278 ΜΠΕΡΖΕΣΤΑ ΕΡΙΣΑ 916 00:39:58 00:39:34 All Ages 146 Female sifnos high school running team
279 ΔΑΜΔΗΜΟΠΟΥΛΟΥ ΑΓΓΕΛΙΚΗ 867 00:40:05 00:39:41 All Ages 147 Female sifnos high school running team
280 ΣΚΙΑΔΑ ΘΩΜΗ 746 00:40:06 00:39:55 All Ages 148 Female
281 ΜΠΕΙΝΤΟ ΛΟΥΙΖΑ 909 00:40:07 00:39:42 All Ages 149 Female sifnos high school running team
282 ΣΥΝΟΔΙΝΟΥ ΔΗΜΗΤΡΑ 761 00:40:08 00:39:56 All Ages 150 Female
283 ΦΥΣΣΑ ΧΡΥΣΟΠΗΓΗ 944 00:40:09 00:39:46 All Ages 151 Female sifnos high school running team
284 ΒΕΡΔΕΛΗΣ ΔΗΜΗΤΡΙΟΣ 960 00:40:54 00:40:24 All Ages 133 Male
285 ΤΡΟΥΛΛΟΣ ΑΝΔΡΕΑΣ 779 00:41:00 00:40:55 All Ages 134 Male
286 ΤΡΑΝΟΥ ΚΑΤΕΡΙΝΑ 776 00:41:05 00:40:45 All Ages 152 Female
287 ΠΟΔΟΤΑ ΚΑΤΕΡΙΝΑ 728 00:41:05 00:40:52 All Ages 153 Female
288 ΜΕΛΕΤΣΗ ΑΓΕΛΙΚΗ 697 00:41:05 00:40:48 All Ages 154 Female
289 ΜΑΣΣΟΠΟΥΛΟΣ ΜΙΧΑΛΗΣ 695 00:41:22 00:40:55 All Ages 135 Male
290 ΤΖΑΝΕΤΑΚΟΥ ΣΟΦΙΑ 766 00:41:22 00:40:55 All Ages 155 Female
291 ΣΥΝΟΔΙΝΟΥ ΑΣΗΜΙΝΑ 935 00:41:24 00:41:05 All Ages 156 Female sifnos high school running team
292 ΘΕΟΔΩΡΑΤΟΥ ΖΩΗ 594 00:41:24 00:41:01 All Ages 157 Female
293 ΤΡΙΑΝΤΑΦΥΛΛΟΠΟΥΛΟΥ ΑΝΑΣΤΑΣΙΑ 937 00:41:24 00:41:00 All Ages 158 Female sifnos high school running team
294 ΧΡΥΣΟΥ ΕΙΡΗΝΗ 948 00:41:30 00:41:06 All Ages 159 Female sifnos high school running team
295 ΓΚΡΕΚΟΥ ΚΩΝΣΤΑΝΤΙΝΑ 866 00:41:34 00:41:25 All Ages 160 Female sifnos high school running team
296 ΚΟΥΚΟΥΜΕΛΗ ΤΖΕΛΙΝΑ 656 00:41:34 00:41:19 All Ages 161 Female
297 ΟΣΜΕΝΑΙ ΤΖΕΝΗ 921 00:41:49 00:41:40 All Ages 162 Female sifnos high school running team
298 ΤΣΑΝΤΗ ΑΝΝΑ 782 00:41:50 00:41:43 All Ages 163 Female
299 ΦΡΑΖΕΣΚΑΡΟΣ ΑΝΤΩΝΗΣ 957 00:41:50 00:41:32 All Ages 136 Male
300 ΟΙΚΟΝΟΜΟΠΟΥΛΟΥ ΜΑΡΙΝΑ 719 00:41:52 00:41:38 All Ages 164 Female
301 ΠΡΟΥΝΙΑ ΒΑΣΙΛΙΚΗ 734 00:42:01 00:41:58 All Ages 165 Female
302 ΑΤΣΟΝΙΟΥ ΝΙΚΟΛΕΤΑ 536 00:42:02 00:41:46 All Ages 166 Female
303 ΠΑΝΤΑΖΟΠΟΥΛΟΥ ΦΑΙΗ 723 00:42:08 00:41:51 All Ages 167 Female
304 ΠΑΝΤΑΖΟΠΟΥΛΟΣ ΝΙΚΟΛΑΟΣ 721 00:42:11 00:41:51 All Ages 137 Male
305 ΚΟΥΡΜΟΥΛΑΚΗ ΝΙΚΗ 657 00:42:27 00:42:17 All Ages 168 Female
306 ΔΗΜΗΣΙΑΝΟΥ ΚΕΡΚΥΡΑ 820 00:42:37 00:42:16 All Ages 169 Female ΠΣΠΑ
307 ΣΤΥΛΙΑΝΟΥ ΑΡΣΙΝΟΗ 758 00:42:51 00:42:33 All Ages 170 Female
308 ΡΕΦΕΛΕΤΟΥ ΜΑΡΙΑ 931 00:42:52 00:42:28 All Ages 171 Female sifnos high school running team
309 ΤΡΑΓΙΑΝΟΥ ΧΡΙΣΤΙΝΑ 775 00:42:59 00:42:46 All Ages 172 Female “””ΜΠΕΛΛΕΣ”””
310 ΑΧΛΑΤΗ ΕΛΕΝΗ 539 00:43:02 00:42:44 All Ages 173 Female “””ΜΠΕΛΛΕΣ”””
311 ΧΟΥΖΟΥΡΗ ΦΕΝΙΑ 945 00:43:03 00:42:38 All Ages 174 Female sifnos high school running team
312 ΔΑΡΖΕΝΤΑ ΚΑΤΕΡΙΝΑ 868 00:43:07 00:42:58 All Ages 175 Female sifnos high school running team
313 ΑΛΕΥΡΑΣ ΓΡΗΓΟΡΗΣ 846 00:43:13 00:43:12 All Ages 138 Male sifnos high school running team
314 ΚΑΝΑΒΟΣ ΑΛΕΞΗΣ 620 00:43:15 00:42:46 All Ages 139 Male NOVASPORTS RUNNING TEAM
315 ΚΑΡΑΒΟΥ ΑΥΓΟΥΣΤΙΝΑ 626 00:43:17 00:43:08 All Ages 176 Female
316 ΣΕΙΜΑΝΙΔΟΥ ΠΗΓΗ 743 00:43:19 00:43:09 All Ages 177 Female
317 ΚΑΛΤΣΑ ΜΑΡΙΑ 615 00:43:35 00:43:30 All Ages 178 Female ΝΕΜΕΣΙΣ ΛΑΜΙΑΣ
318 ΠΟΔΟΤΑ ΧΡΥΣΟΥΛΑ 729 00:43:38 00:43:24 All Ages 179 Female
319 ΓΙΑΝΝΙΚΑΚΗ ΣΩΤΗΡΙΑ 558 00:43:45 00:43:18 All Ages 180 Female
320 ΚΑΜΠΟΛΗ ΚΑΛΛΙΟΠΗ 617 00:43:46 00:43:18 All Ages 181 Female
321 ΑΣΗΜΑΚΟΠΟΥΛΟΥ ΕΥΑΓΓΕΛΙΑ 529 00:43:53 00:43:47 All Ages 182 Female
322 ΔΕΡΜΟΣΟΝΙΑΔΗ ΜΑΡΙΑ 988 00:43:56 00:43:31 All Ages 183 Female
323 ΚΑΛΟΓΗΡΟΣ ΣΠΥΡΟΣ 880 00:44:37 00:44:18 All Ages 140 Male sifnos high school running team
324 ΤΣΙΠΑ ΛΙΛΙΑΝ 789 00:44:50 00:44:38 All Ages 184 Female
325 ΘΕΟΔΩΡΑΤΟΥ ΚΟΡΙΝΑ 595 00:44:50 00:44:37 All Ages 185 Female
326 ΚΑΛΚΑΚΟΥ ΕΛΕΝΗ 607 00:44:58 00:44:47 All Ages 186 Female
327 ΜΑΥΡΟΓΙΑΝΝΗ ΑΓΓΕΛΙΚΗ 902 00:44:59 00:44:51 All Ages 187 Female sifnos high school running team
328 ΦΥΣΣΑ ΕΙΡΗΝΗ 943 00:45:03 00:44:53 All Ages 188 Female sifnos high school running team
329 ΚΑΛΟΓΗΡΟΣ ΓΑΒΡΙΗΛ 958 00:45:04 00:44:50 All Ages 141 Male
330 ΚΑΛΟΓΗΡΟΣ ΑΓΓΕΛΟΣ 879 00:45:28 00:45:15 All Ages 142 Male sifnos high school running team
331 ΖΕΚΚΑ ΕΛΕΝΗ 585 00:45:35 00:45:20 All Ages 189 Female
332 ΠΑΤΡΙΝΟΥ ΔΙΟΝΥΣΙΑ 989 00:46:12 00:45:45 All Ages 190 Female
333 ΚΟΥΛΟΧΕΡΗΣ ΣΟΦΙΑΝΟΣ 971 00:46:32 00:46:03 All Ages 143 Male
334 ΚΩΣΤΗΣ ΔΗΜΗΤΡΙΟΣ 661 00:46:41 00:46:11 All Ages 144 Male
335 ΔΙΑΜΑΝΤΗ ΜΑΡΙΑ 576 00:46:50 00:46:38 All Ages 191 Female
336 ΜΥΖΗΡΗ ΣΕΛΙΟΝΑ 917 00:46:51 00:46:29 All Ages 192 Female sifnos high school running team
337 ΒΕΝΙΟΥ ΕΛΕΝΗ 852 00:46:52 00:46:43 All Ages 193 Female sifnos high school running team
338 ΝΤΙΒΕΡΗ ΒΑΣΙΛΙΚΗ 717 00:47:22 00:46:50 All Ages 194 Female
339 ΤΣΙΝΕ ΜΑΡΙΝΑ 788 00:47:55 00:47:47 All Ages 195 Female
340 ΑΝΑΓΝΩΣΤΟΥ ΑΛΕΞΑΝΔΡΑ 970 00:47:58 00:47:25 All Ages 196 Female
341 ΤΡΙΧΑ ΚΩΝ/ΝΑ 939 00:48:00 00:47:49 All Ages 197 Female sifnos high school running team
342 ΜΠΕΚΕ ΚΑΤΕΡΙΝΑ 910 00:48:06 00:47:46 All Ages 198 Female sifnos high school running team
343 ΜΟΥΣΟΥΡΕΛΗΣ ΜΑΝΟΣ 700 00:48:33 00:48:21 All Ages 145 Male
344 ΚΟΝΤΑΞΗ ΑΛΕΞΙΑ 825 00:49:02 00:48:42 All Ages 199 Female ΠΣΠΑ
345 ΠΡΟΚΟΥ ΜΑΡΟΥΛΙΑ 930 00:49:36 00:49:17 All Ages 200 Female sifnos high school running team
346 ΖΕΡΒΑ ΑΙΚΑΤΕΡΙΝΗ 586 00:49:37 00:49:23 All Ages 201 Female
347 ΛΕΜΟΝΗ ΣΟΦΙΑ 892 00:49:37 00:49:14 All Ages 202 Female sifnos high school running team
348 ΜΑΚΡΗ ΚΑΤΙΑ 679 00:49:54 00:49:38 All Ages 203 Female
349 ΚΑΛΟΓΗΡΟΥ ΑΙΚΑΤΕΡΙΝΗ 609 00:49:54 00:49:43 All Ages 204 Female
350 ΣΟΦΑΔΙΤΟΥ ΣΤΕΛΛΑ 751 00:49:56 00:49:46 All Ages 205 Female
351 ΧΑΤΖΗΜΠΑΛΗΣ ΝΕΣΤΟΡΑΣ 801 00:49:57 00:49:49 All Ages 146 Male
352 ΚΑΣΤΑΜΟΥΛΑΣ ΝΙΚΟΛΑΟΣ 630 00:50:45 00:50:13 All Ages 147 Male
353 ΝΑΒΡΟΖΙΔΟΥ ΕΦΗ 712 00:51:11 00:50:53 All Ages 206 Female “””ΜΠΕΛΛΕΣ”””
354 ΜΟΥΣΧΟΥΝΤΉ-ΨΑΡΡΑ ΕΥΑΓΓΕΛΙΑ 701 00:51:31 00:51:27 All Ages 207 Female
355 ΒΕΝΤΟΥΡΗ ΦΛΩΡΑ 550 00:52:16 00:52:16 All Ages 208 Female
356 ΕΥΜΟΛΠΙΔΗΣ ΒΑΣΙΛΗΣ 579 00:53:20 00:52:48 All Ages 148 Male ATT ATHENS TRIATHLON TEAM
357 ΚΑΖΑΝΑΣ ΑΛΕΞΑΝΔΡΟΣ 603 00:55:05 00:54:54 All Ages 149 Male
358 ΓΙΑΝΝΟΠΟΥΛΟΥ ΚΑΛΛΙΟΠΗ 559 00:56:03 00:55:42 All Ages 209 Female
359 ΠΑΝΤΑΖΟΠΟΥΛΟΥ ΖΩΗ 722 00:56:06 00:55:49 All Ages 210 Female
360 ΠΑΠΑΓΓΕΛΕΤΟΥ ΜΑΡΙΑ 924 00:56:36 00:56:13 All Ages 211 Female sifnos high school running team
361 ΔΕΛΧΑΝΙΔΟΥ ΒΙΡΓΙΝΙΑ 569 00:57:34 00:57:31 All Ages 212 Female
362 ΑΒΡΑΜΟΥΔΑ ΦΩΤΕΙΝΗ 509 00:57:36 00:57:23 All Ages 213 Female “””ΜΠΕΛΛΕΣ”””
363 ΚΟΛΙΑΝΤΖΗ ΑΝΑΣΤΑΣΙΑ 641 00:59:07 00:58:40 All Ages 214 Female
364 ΜΑΝΩΛΗ ΓΙΑΝΝΑ 964 01:02:41 01:02:23 All Ages 215 Female
365 ΡΟΔΙΤΗ ΜΑΡΙΑ 990 01:02:44 01:02:16 All Ages 216 Female
366 ΜΑΡΟΥΣΟΥ ΤΙΝΑ 694 01:02:45 01:02:26 All Ages 217 Female
367 ΠΕΤΑΚΑ ΧΡΙΣΤΟΠΟΥΛΟΥ ΖΕΦΗ 965 01:02:56 01:02:26 All Ages 218 Female
368 ΑΤΣΟΝΙΟΥ ΚΑΛΛΙΟΠΗ 533 01:10:22 01:10:22 All Ages 219 Female
369 ΤΣΑΓΚΑΡΗΣ ΒΑΣΙΛΕΙΟΣ 954 01:13:54 01:13:54 All Ages 150 Male SANTA RUNNING TEAM
370 ΑΤΣΟΝΙΟΥ ΦΛΩΡΑ 538 01:18:59 01:18:59 All Ages 220 Female
371 ΛΑΜΠΟΥ ΑΙΚΑΤΕΡΙΝΗ 664 01:19:14 01:19:14 All Ages 221 Female
ΚΑΛΟΓΗΡΟΥ ΑΦΡΟΔΙΤΗ 610 00:19:39 00:16:22 All Ages Female
ΓΕΩΡΓΟΥΛΗΣ ΚΩΝΣΤΑΝΤΙΝΟΣ 557 00:11:25 00:11:25 All Ages Male
ΓΑΛΑΝΗ ΑΓΓΕΛΙΚΗ 854 00:05:15 00:05:15 All Ages Female sifnos high school running team